Time;durP1;ratioP1;P1;durP2;ratioP2;P2;SDS_P1;SDS_P2;PMS_P1;PMS_P2;Temp;Humidity;BMP_temperature;BMP_pressure;BME280_temperature;BME280_humidity;BME280_pressure;Samples;Min_cycle;Max_cycle;Signal;HPM_P1;HPM_P2
2023/08/23 00:01:32;;;;;;;0.55;0.40;;;16.40;99.90;;;;;;5078969;28;20197;-77
2023/08/23 00:04:03;;;;;;;2.17;0.60;;;16.50;99.90;;;;;;5076127;28;20201;-76
2023/08/23 00:06:33;;;;;;;0.82;0.45;;;16.50;99.90;;;;;;5079647;28;20212;-76
2023/08/23 00:09:07;;;;;;;0.70;0.68;;;16.60;99.90;;;;;;5083962;28;20211;-75
2023/08/23 00:11:37;;;;;;;0.73;0.52;;;16.60;99.90;;;;;;5080654;28;20221;-76
2023/08/23 00:14:08;;;;;;;0.63;0.55;;;16.70;99.90;;;;;;5079035;28;20188;-76
2023/08/23 00:16:39;;;;;;;1.45;0.40;;;16.70;99.90;;;;;;5089051;28;20200;-76
2023/08/23 00:19:09;;;;;;;0.88;0.57;;;16.80;99.90;;;;;;5086588;28;20235;-75
2023/08/23 00:21:40;;;;;;;0.70;0.50;;;16.80;99.90;;;;;;5081148;28;20192;-75
2023/08/23 00:24:13;;;;;;;0.40;0.40;;;16.80;99.90;;;;;;5095572;28;20189;-75
2023/08/23 00:26:44;;;;;;;1.25;0.40;;;16.90;99.90;;;;;;5086762;28;20205;-75
2023/08/23 00:29:17;;;;;;;2.58;1.13;;;17.00;99.90;;;;;;5075947;28;20212;-77
2023/08/23 00:31:48;;;;;;;0.50;0.30;;;17.10;99.90;;;;;;5084423;28;20194;-75
2023/08/23 00:34:19;;;;;;;0.43;0.40;;;17.10;99.90;;;;;;5087714;28;20197;-76
2023/08/23 00:36:49;;;;;;;1.00;0.45;;;17.30;99.90;;;;;;5077874;28;20204;-77
2023/08/23 00:39:22;;;;;;;0.57;0.55;;;17.40;99.90;;;;;;5080591;28;20663;-77
2023/08/23 00:41:53;;;;;;;0.80;0.40;;;17.50;99.90;;;;;;5082199;28;20200;-77
2023/08/23 00:44:23;;;;;;;1.25;0.60;;;17.60;99.90;;;;;;5091891;28;20203;-77
2023/08/23 00:46:54;;;;;;;0.88;0.47;;;17.80;99.90;;;;;;5079807;28;20684;-78
2023/08/23 00:49:26;;;;;;;0.50;0.50;;;17.90;99.90;;;;;;5083354;28;20204;-78
2023/08/23 00:51:57;;;;;;;0.55;0.55;;;18.00;99.90;;;;;;5086213;28;20192;-78
2023/08/23 00:54:29;;;;;;;1.80;0.55;;;18.10;99.90;;;;;;5086209;28;20230;-76
2023/08/23 00:57:03;;;;;;;0.65;0.60;;;18.10;99.90;;;;;;5091468;28;20207;-76
2023/08/23 00:59:36;;;;;;;0.50;0.40;;;18.20;99.90;;;;;;5078833;28;20200;-76
2023/08/23 01:02:07;;;;;;;0.50;0.50;;;18.20;99.90;;;;;;5084224;28;20211;-77
2023/08/23 01:04:40;;;;;;;1.30;0.50;;;18.30;99.90;;;;;;5088270;28;20196;-76
2023/08/23 01:07:16;;;;;;;0.50;0.50;;;18.40;99.90;;;;;;5074983;28;20220;-76
2023/08/23 01:09:55;;;;;;;0.40;0.40;;;18.40;99.90;;;;;;5079608;28;20219;-76
2023/08/23 01:12:34;;;;;;;2.08;0.90;;;18.50;99.90;;;;;;5088997;28;20240;-77
2023/08/23 01:15:08;;;;;;;0.63;0.40;;;18.60;99.90;;;;;;5089493;28;20211;-77
2023/08/23 01:17:41;;;;;;;0.80;0.60;;;18.60;99.90;;;;;;5082885;28;20195;-77
2023/08/23 01:20:13;;;;;;;0.50;0.38;;;18.80;99.90;;;;;;5086402;28;20209;-77
2023/08/23 01:22:55;;;;;;;0.55;0.50;;;18.90;99.90;;;;;;5074826;28;20200;-77
2023/08/23 01:25:28;;;;;;;1.77;0.47;;;19.20;99.90;;;;;;5075331;28;20201;-76
2023/08/23 01:28:01;;;;;;;0.55;0.50;;;19.20;99.90;;;;;;5085670;28;20211;-76
2023/08/23 01:30:32;;;;;;;0.63;0.60;;;19.30;99.90;;;;;;5087772;28;20215;-77
2023/08/23 01:33:08;;;;;;;0.80;0.50;;;19.20;99.90;;;;;;5074529;28;20197;-77
2023/08/23 01:35:48;;;;;;;0.70;0.50;;;19.20;99.90;;;;;;5080791;28;20211;-76
2023/08/23 01:38:21;;;;;;;1.45;0.60;;;19.20;99.90;;;;;;5078615;28;20246;-77
2023/08/23 01:40:55;;;;;;;0.40;0.30;;;19.30;99.90;;;;;;5087463;28;20188;-76
2023/08/23 01:43:26;;;;;;;0.88;0.60;;;19.40;99.90;;;;;;5081783;28;20223;-77
2023/08/23 01:45:57;;;;;;;0.50;0.50;;;19.40;99.90;;;;;;5084150;28;20192;-76
2023/08/23 01:48:28;;;;;;;1.45;0.50;;;19.30;99.90;;;;;;5083895;28;20223;-75
2023/08/23 01:50:58;;;;;;;0.90;0.55;;;19.30;99.90;;;;;;5079672;28;20220;-76
2023/08/23 01:53:29;;;;;;;1.23;0.88;;;19.20;99.90;;;;;;5082788;28;20202;-75
2023/08/23 01:56:02;;;;;;;0.80;0.47;;;19.10;99.90;;;;;;5073726;28;20200;-76
2023/08/23 01:58:33;;;;;;;1.92;0.52;;;18.90;99.90;;;;;;5076485;28;20193;-76
2023/08/23 02:01:04;;;;;;;0.80;0.40;;;18.80;99.90;;;;;;5080787;28;20203;-76
2023/08/23 02:03:34;;;;;;;0.68;0.43;;;18.70;99.90;;;;;;5073508;28;20199;-76
2023/08/23 02:06:05;;;;;;;0.82;0.50;;;18.70;99.90;;;;;;5074222;28;20208;-76
2023/08/23 02:08:37;;;;;;;0.50;0.50;;;18.60;99.90;;;;;;5079153;28;20216;-76
2023/08/23 02:11:10;;;;;;;2.65;0.60;;;18.70;99.90;;;;;;5086246;28;20236;-77
2023/08/23 02:13:40;;;;;;;1.77;0.50;;;18.70;99.90;;;;;;5082214;28;20199;-77
2023/08/23 02:16:11;;;;;;;1.58;0.65;;;18.70;99.90;;;;;;5080674;28;20201;-77
2023/08/23 02:18:42;;;;;;;1.40;0.50;;;18.60;99.90;;;;;;5080265;28;20193;-78
2023/08/23 02:21:12;;;;;;;3.22;0.60;;;18.50;99.90;;;;;;5087391;28;20189;-76
2023/08/23 02:23:43;;;;;;;4.18;0.75;;;18.40;99.90;;;;;;5092656;28;20196;-76
2023/08/23 02:26:16;;;;;;;2.97;0.80;;;18.40;99.90;;;;;;5079080;28;20196;-75
2023/08/23 02:28:46;;;;;;;0.93;0.50;;;18.50;99.90;;;;;;5089354;28;20220;-76
2023/08/23 02:31:17;;;;;;;1.58;0.68;;;18.40;99.90;;;;;;5083106;28;20223;-75
2023/08/23 02:33:48;;;;;;;2.15;0.60;;;18.30;99.90;;;;;;5093374;28;20199;-77
2023/08/23 02:36:19;;;;;;;1.30;0.50;;;18.30;99.90;;;;;;5093390;28;20199;-76
2023/08/23 02:38:49;;;;;;;2.45;0.80;;;18.30;99.90;;;;;;5093872;28;20192;-75
2023/08/23 02:41:22;;;;;;;1.25;0.60;;;18.20;99.90;;;;;;5093232;28;20195;-75
2023/08/23 02:43:53;;;;;;;1.33;0.40;;;18.10;99.90;;;;;;5093216;28;20184;-75
2023/08/23 02:46:23;;;;;;;1.33;0.50;;;17.90;99.90;;;;;;5093209;28;20199;-77
2023/08/23 02:48:54;;;;;;;2.22;0.60;;;17.80;99.90;;;;;;5093245;28;20220;-78
2023/08/23 02:51:25;;;;;;;2.40;0.90;;;17.70;99.90;;;;;;5090950;28;20271;-76
2023/08/23 02:53:56;;;;;;;3.78;1.20;;;17.40;99.90;;;;;;5093103;28;20188;-76
2023/08/23 02:56:28;;;;;;;3.50;0.73;;;17.30;99.90;;;;;;5092941;28;20188;-75
2023/08/23 02:58:59;;;;;;;2.00;0.70;;;17.20;99.90;;;;;;5093123;28;20200;-77
2023/08/23 03:01:30;;;;;;;0.70;0.50;;;17.10;99.90;;;;;;5086231;28;20675;-76
2023/08/23 03:04:01;;;;;;;1.02;0.70;;;16.90;99.90;;;;;;5078581;28;20181;-75
2023/08/23 03:06:31;;;;;;;0.95;0.60;;;16.80;99.90;;;;;;5072871;28;20204;-75
2023/08/23 03:09:02;;;;;;;1.48;0.73;;;16.70;99.90;;;;;;5077653;28;20219;-80
2023/08/23 03:11:35;;;;;;;2.33;0.80;;;16.50;99.90;;;;;;5087532;28;20227;-76
2023/08/23 03:14:05;;;;;;;1.13;1.02;;;16.40;99.90;;;;;;5072778;28;20189;-76
2023/08/23 03:16:36;;;;;;;1.98;0.60;;;16.30;99.90;;;;;;5073015;28;20188;-76
2023/08/23 03:19:07;;;;;;;0.75;0.60;;;16.20;99.90;;;;;;5076067;28;20189;-74
2023/08/23 03:21:37;;;;;;;1.38;0.50;;;16.20;99.90;;;;;;5085754;28;20242;-74
2023/08/23 03:24:08;;;;;;;0.80;0.70;;;16.20;99.90;;;;;;5096805;28;20585;-74
2023/08/23 03:26:41;;;;;;;0.75;0.60;;;16.20;99.90;;;;;;5082587;28;20287;-75
2023/08/23 03:29:12;;;;;;;1.45;0.60;;;16.10;99.90;;;;;;5080987;28;20228;-75
2023/08/23 03:31:42;;;;;;;0.40;0.40;;;16.10;99.90;;;;;;5087757;28;20200;-74
2023/08/23 03:34:13;;;;;;;0.50;0.50;;;16.20;99.90;;;;;;5094707;28;20192;-74
2023/08/23 03:36:44;;;;;;;2.00;0.95;;;16.20;99.90;;;;;;5090911;28;20193;-76
2023/08/23 03:39:15;;;;;;;2.60;1.00;;;16.20;99.90;;;;;;5095542;28;20192;-76
2023/08/23 03:41:48;;;;;;;1.92;0.75;;;16.30;99.90;;;;;;5091426;28;20193;-78
2023/08/23 03:44:19;;;;;;;1.73;0.70;;;16.40;99.90;;;;;;5076328;28;20193;-78
2023/08/23 03:46:50;;;;;;;1.67;0.50;;;16.40;99.90;;;;;;5077232;28;20185;-77
2023/08/23 03:49:21;;;;;;;2.33;0.77;;;16.50;99.90;;;;;;5089111;28;20220;-76
2023/08/23 03:51:51;;;;;;;1.35;0.70;;;16.40;99.90;;;;;;5096343;28;20220;-76
2023/08/23 03:54:23;;;;;;;1.60;0.50;;;16.40;99.90;;;;;;5077854;28;20193;-75
2023/08/23 03:56:56;;;;;;;2.30;0.60;;;16.50;99.90;;;;;;5096309;28;20639;-76
2023/08/23 03:59:26;;;;;;;4.65;0.90;;;16.50;99.90;;;;;;5096385;28;20193;-77
2023/08/23 04:01:57;;;;;;;2.03;1.00;;;16.60;99.90;;;;;;5093628;28;20188;-76
2023/08/23 04:04:28;;;;;;;3.40;0.90;;;16.60;99.90;;;;;;5094326;28;20684;-76
2023/08/23 04:06:59;;;;;;;3.53;1.05;;;16.80;99.90;;;;;;5075940;28;20660;-75
2023/08/23 04:09:29;;;;;;;2.47;0.77;;;16.80;99.90;;;;;;5075734;28;20220;-77
2023/08/23 04:12:02;;;;;;;4.05;0.80;;;16.90;99.90;;;;;;5084657;28;20232;-75
2023/08/23 04:14:33;;;;;;;1.95;0.80;;;17.00;99.90;;;;;;5096000;28;20188;-76
2023/08/23 04:17:03;;;;;;;3.42;0.98;;;17.10;99.90;;;;;;5096167;28;20193;-76
2023/08/23 04:19:34;;;;;;;2.38;0.82;;;17.10;99.90;;;;;;5095978;28;20192;-75
2023/08/23 04:22:05;;;;;;;2.22;0.75;;;17.20;99.90;;;;;;5095653;28;20261;-77
2023/08/23 04:24:36;;;;;;;3.35;0.98;;;17.20;99.90;;;;;;5093239;28;20193;-76
2023/08/23 04:27:08;;;;;;;6.07;1.63;;;17.20;99.90;;;;;;5077103;28;20200;-76
2023/08/23 04:29:39;;;;;;;1.90;0.73;;;17.20;99.90;;;;;;5094603;28;20686;-77
2023/08/23 04:32:12;;;;;;;5.47;1.67;;;17.10;99.90;;;;;;5075567;28;20201;-77
2023/08/23 04:34:43;;;;;;;3.97;1.15;;;17.10;99.90;;;;;;5086400;28;20188;-76
2023/08/23 04:37:14;;;;;;;2.22;1.00;;;17.10;99.90;;;;;;5084921;28;20566;-76
2023/08/23 04:39:45;;;;;;;2.88;0.80;;;17.00;99.90;;;;;;5076970;28;20196;-78
2023/08/23 04:42:17;;;;;;;2.35;0.70;;;17.00;99.90;;;;;;5087990;28;20193;-76
2023/08/23 04:44:48;;;;;;;3.45;0.90;;;17.00;99.90;;;;;;5095498;28;20195;-75
2023/08/23 04:47:19;;;;;;;3.05;0.98;;;17.00;99.90;;;;;;5080596;28;20203;-75
2023/08/23 04:49:49;;;;;;;3.40;0.80;;;17.00;99.90;;;;;;5074914;28;20220;-75
2023/08/23 04:52:22;;;;;;;7.53;1.00;;;17.00;99.90;;;;;;5076158;28;20201;-75
2023/08/23 04:54:53;;;;;;;3.50;0.90;;;17.00;99.90;;;;;;5075083;28;20189;-76
2023/08/23 04:57:25;;;;;;;6.40;0.95;;;17.00;99.90;;;;;;5074086;28;20201;-77
2023/08/23 04:59:57;;;;;;;5.13;0.85;;;17.00;99.90;;;;;;5074906;28;20205;-75
2023/08/23 05:02:28;;;;;;;4.07;1.00;;;16.90;99.90;;;;;;5075250;28;20235;-75
2023/08/23 05:05:02;;;;;;;5.60;1.30;;;16.90;99.90;;;;;;5074492;28;20193;-76
2023/08/23 05:07:33;;;;;;;5.15;1.10;;;16.90;99.90;;;;;;5079684;28;20241;-76
2023/08/23 05:10:04;;;;;;;4.00;1.00;;;16.80;99.90;;;;;;5094955;28;20632;-76
2023/08/23 05:12:36;;;;;;;5.25;1.17;;;16.80;99.90;;;;;;5074585;28;20216;-75
2023/08/23 05:15:08;;;;;;;3.22;1.30;;;16.80;99.90;;;;;;5069544;28;20189;-75
2023/08/23 05:17:39;;;;;;;5.00;1.05;;;16.70;99.90;;;;;;5070602;28;20190;-76
2023/08/23 05:20:11;;;;;;;7.32;1.30;;;16.70;99.90;;;;;;5054340;28;20209;-76
2023/08/23 05:22:42;;;;;;;7.57;1.10;;;16.70;99.90;;;;;;5057789;28;20193;-76
2023/08/23 05:25:13;;;;;;;6.63;1.38;;;16.60;99.90;;;;;;5057323;28;20209;-77
2023/08/23 05:27:45;;;;;;;5.45;1.15;;;16.60;99.90;;;;;;5061187;28;20264;-76
2023/08/23 05:30:16;;;;;;;7.55;1.33;;;16.60;99.90;;;;;;5061609;28;20217;-76
2023/08/23 05:32:47;;;;;;;8.20;1.27;;;16.50;99.90;;;;;;5058119;28;20716;-76
2023/08/23 05:35:18;;;;;;;7.10;1.20;;;16.50;99.90;;;;;;5061526;28;20208;-77
2023/08/23 05:37:48;;;;;;;6.15;1.45;;;16.40;99.90;;;;;;5063411;28;20572;-75
2023/08/23 05:40:19;;;;;;;5.55;1.13;;;16.40;99.90;;;;;;5068524;28;20641;-75
2023/08/23 05:42:52;;;;;;;7.00;1.38;;;16.40;99.90;;;;;;5073702;28;20193;-75
2023/08/23 05:45:26;;;;;;;6.72;1.20;;;16.50;99.90;;;;;;5057787;28;20208;-75
2023/08/23 05:47:58;;;;;;;5.47;1.33;;;16.50;99.90;;;;;;5058700;28;20192;-76
2023/08/23 05:50:29;;;;;;;6.25;1.35;;;16.60;99.90;;;;;;5062114;28;20232;-76
2023/08/23 05:53:00;;;;;;;5.25;1.10;;;16.50;99.90;;;;;;5053926;28;20544;-75
2023/08/23 05:55:30;;;;;;;8.48;1.10;;;16.50;99.90;;;;;;5053646;28;20630;-77
2023/08/23 05:58:03;;;;;;;5.80;1.20;;;16.60;99.90;;;;;;5053848;28;20190;-75
2023/08/23 06:00:34;;;;;;;12.43;1.33;;;16.50;99.90;;;;;;5054742;28;20190;-77
2023/08/23 06:03:04;;;;;;;7.13;2.30;;;16.50;99.90;;;;;;5053536;28;20532;-76
2023/08/23 06:05:35;;;;;;;4.88;1.17;;;16.60;99.90;;;;;;5052597;28;20656;-75
2023/08/23 06:08:06;;;;;;;3.72;1.27;;;16.50;99.90;;;;;;5053469;28;20592;-78
2023/08/23 06:10:37;;;;;;;7.78;1.10;;;16.50;99.90;;;;;;5072651;28;20227;-77
2023/08/23 06:13:10;;;;;;;6.57;1.10;;;16.50;99.90;;;;;;5093720;28;20647;-77
2023/08/23 06:15:41;;;;;;;7.07;1.10;;;16.40;99.90;;;;;;5093429;28;20553;-77
2023/08/23 06:18:11;;;;;;;5.30;1.08;;;16.50;99.90;;;;;;5087791;28;20204;-77
2023/08/23 06:20:43;;;;;;;5.53;1.40;;;16.50;99.90;;;;;;5073047;28;20185;-75
2023/08/23 06:23:14;;;;;;;3.40;0.90;;;16.50;99.90;;;;;;5084289;28;20195;-75
2023/08/23 06:25:44;;;;;;;7.13;1.13;;;16.50;99.90;;;;;;5088383;28;20203;-76
2023/08/23 06:28:17;;;;;;;5.28;0.90;;;16.50;99.90;;;;;;5076914;28;20212;-75
2023/08/23 06:30:48;;;;;;;7.32;1.73;;;16.50;99.90;;;;;;5080344;28;20192;-75
2023/08/23 06:33:18;;;;;;;6.68;0.88;;;16.50;99.90;;;;;;5072766;28;20189;-75
2023/08/23 06:35:49;;;;;;;7.38;1.00;;;16.50;99.90;;;;;;5074865;28;20200;-76
2023/08/23 06:38:20;;;;;;;3.25;1.10;;;16.60;99.90;;;;;;5082354;28;20249;-77
2023/08/23 06:40:51;;;;;;;5.32;1.20;;;16.60;99.90;;;;;;5091056;28;20185;-77
2023/08/23 06:43:26;;;;;;;7.03;1.10;;;16.60;99.90;;;;;;5087495;28;20203;-76
2023/08/23 06:45:56;;;;;;;6.10;1.10;;;16.60;99.90;;;;;;5072975;28;20299;-76
2023/08/23 06:48:27;;;;;;;9.65;1.45;;;16.50;99.90;;;;;;5072551;28;20196;-75
2023/08/23 06:50:59;;;;;;;7.43;1.10;;;16.50;99.90;;;;;;5073884;28;20196;-77
2023/08/23 06:53:31;;;;;;;4.32;1.02;;;16.50;99.90;;;;;;5073205;28;20193;-77
2023/08/23 06:56:02;;;;;;;5.10;1.08;;;16.40;99.90;;;;;;5076695;28;20239;-76
2023/08/23 06:58:35;;;;;;;5.03;0.93;;;16.40;99.90;;;;;;5072341;28;20199;-76
2023/08/23 07:01:09;;;;;;;7.10;1.20;;;16.40;99.90;;;;;;5073234;28;20180;-76
2023/08/23 07:03:39;;;;;;;7.43;1.85;;;16.40;99.90;;;;;;5083754;28;20699;-76
2023/08/23 07:06:10;;;;;;;7.80;1.15;;;16.40;99.90;;;;;;5080083;28;20279;-75
2023/08/23 07:08:41;;;;;;;6.68;1.02;;;16.40;99.90;;;;;;5074735;28;20213;-76
2023/08/23 07:11:15;;;;;;;8.18;1.15;;;16.30;99.90;;;;;;5072723;28;20224;-78
2023/08/23 07:13:48;;;;;;;4.78;1.00;;;16.30;99.90;;;;;;5072877;28;20632;-75
2023/08/23 07:16:19;;;;;;;5.78;1.02;;;16.30;99.90;;;;;;5072028;28;20199;-75
2023/08/23 07:18:49;;;;;;;4.95;1.10;;;16.30;99.90;;;;;;5076391;28;20952;-79
2023/08/23 07:21:20;;;;;;;6.15;1.27;;;16.30;99.90;;;;;;5077797;28;20200;-76
2023/08/23 07:23:51;;;;;;;5.53;1.00;;;16.20;99.90;;;;;;5077638;28;20207;-77
2023/08/23 07:26:22;;;;;;;51.40;36.75;;;16.20;99.90;;;;;;5083568;28;20189;-76
2023/08/23 07:28:54;;;;;;;140.40;89.03;;;16.30;99.90;;;;;;5087152;28;20667;-76
2023/08/23 07:31:25;;;;;;;33.55;21.15;;;16.20;99.90;;;;;;5092373;28;20552;-76
2023/08/23 07:33:56;;;;;;;54.03;38.50;;;16.30;99.90;;;;;;5092856;28;20199;-76
2023/08/23 07:36:26;;;;;;;13.82;6.05;;;16.20;99.90;;;;;;5081071;28;20185;-75
2023/08/23 07:38:57;;;;;;;4.88;1.70;;;16.20;99.90;;;;;;5085274;28;20608;-78
2023/08/23 07:41:28;;;;;;;9.10;4.22;;;16.20;99.90;;;;;;5086296;28;20196;-78
2023/08/23 07:44:00;;;;;;;5.57;1.75;;;16.20;99.90;;;;;;5090846;28;20197;-76
2023/08/23 07:46:31;;;;;;;6.15;2.08;;;16.20;99.90;;;;;;5089254;28;20189;-77
2023/08/23 07:49:02;;;;;;;9.00;3.40;;;16.20;99.90;;;;;;5092637;28;20227;-77
2023/08/23 07:51:33;;;;;;;6.57;2.17;;;16.20;99.90;;;;;;5091513;28;20184;-77
2023/08/23 07:54:03;;;;;;;5.65;1.77;;;16.20;99.90;;;;;;5090540;28;20200;-78
2023/08/23 07:56:34;;;;;;;9.93;1.92;;;16.20;99.90;;;;;;5076012;28;20192;-76
2023/08/23 07:59:07;;;;;;;7.05;1.98;;;16.20;99.90;;;;;;5079001;28;20216;-77
2023/08/23 08:01:37;;;;;;;6.82;1.55;;;16.10;99.90;;;;;;5091111;28;20188;-78
2023/08/23 08:04:08;;;;;;;7.20;1.48;;;16.10;99.90;;;;;;5092304;28;20192;-76
2023/08/23 08:06:39;;;;;;;7.13;1.60;;;16.10;99.90;;;;;;5081902;28;20208;-78
2023/08/23 08:09:10;;;;;;;7.25;1.60;;;16.10;99.90;;;;;;5089355;28;20235;-78
2023/08/23 08:11:41;;;;;;;8.15;2.00;;;16.20;99.90;;;;;;5095703;28;20227;-76
2023/08/23 08:14:15;;;;;;;101.28;64.32;;;16.10;99.90;;;;;;5086587;28;20197;-76
2023/08/23 08:16:45;;;;;;;47.17;25.77;;;16.20;99.90;;;;;;5079841;28;20192;-77
2023/08/23 08:19:16;;;;;;;8.23;3.65;;;16.20;99.90;;;;;;5091893;28;20188;-77
2023/08/23 08:21:47;;;;;;;9.85;2.20;;;16.10;99.90;;;;;;5095446;28;20196;-77
2023/08/23 08:24:18;;;;;;;6.55;1.98;;;16.20;99.90;;;;;;5085286;28;20204;-77
2023/08/23 08:26:49;;;;;;;4.80;1.95;;;16.10;99.90;;;;;;5082642;28;20200;-77
2023/08/23 08:29:22;;;;;;;8.77;2.42;;;16.20;99.90;;;;;;5081037;28;20239;-76
2023/08/23 08:31:53;;;;;;;7.13;2.08;;;16.20;99.90;;;;;;5089634;28;20552;-77
2023/08/23 08:34:23;;;;;;;6.72;2.20;;;16.20;99.90;;;;;;5077601;28;20196;-76
2023/08/23 08:36:54;;;;;;;10.00;2.60;;;16.20;99.90;;;;;;5079814;28;20200;-76
2023/08/23 08:39:25;;;;;;;7.97;1.80;;;16.10;99.90;;;;;;5080827;28;20575;-76
2023/08/23 08:41:56;;;;;;;8.02;2.10;;;16.10;99.90;;;;;;5075778;28;20193;-75
2023/08/23 08:44:29;;;;;;;6.30;1.73;;;16.20;99.90;;;;;;5076876;28;20196;-75
2023/08/23 08:46:59;;;;;;;6.45;1.77;;;16.20;99.90;;;;;;5077946;28;20196;-75
2023/08/23 08:49:30;;;;;;;6.13;1.38;;;16.20;99.90;;;;;;5074558;28;20223;-76
2023/08/23 08:52:05;;;;;;;7.43;1.90;;;16.20;99.90;;;;;;5079361;28;20218;-75
2023/08/23 08:54:37;;;;;;;8.88;1.70;;;16.20;99.90;;;;;;5091798;28;20572;-75
2023/08/23 08:57:08;;;;;;;8.95;1.80;;;16.20;99.90;;;;;;5081824;28;20615;-76
2023/08/23 08:59:43;;;;;;;8.98;1.70;;;16.10;99.90;;;;;;5082764;28;20223;-75
2023/08/23 09:02:17;;;;;;;6.72;1.50;;;16.20;99.90;;;;;;5080928;28;20218;-76
2023/08/23 09:04:49;;;;;;;9.30;1.52;;;16.20;99.90;;;;;;5077590;28;20200;-74
2023/08/23 09:07:19;;;;;;;7.43;1.70;;;16.10;99.90;;;;;;5081174;28;20196;-76
2023/08/23 09:09:52;;;;;;;7.13;1.42;;;16.20;99.90;;;;;;5086507;28;20671;-75
2023/08/23 09:12:23;;;;;;;7.10;1.80;;;16.10;99.90;;;;;;5084192;28;20225;-76
2023/08/23 09:14:55;;;;;;;9.57;1.90;;;16.20;99.90;;;;;;5083158;28;20196;-76
2023/08/23 09:17:32;;;;;;;6.50;1.73;;;16.10;99.90;;;;;;5085490;28;20816;-76
2023/08/23 09:20:07;;;;;;;3.92;1.23;;;16.10;99.90;;;;;;5077581;28;20193;-76
2023/08/23 09:22:38;;;;;;;8.60;1.77;;;16.10;99.90;;;;;;5088569;28;20721;-75
2023/08/23 09:25:09;;;;;;;7.15;1.80;;;16.10;99.90;;;;;;5075588;28;20200;-75
2023/08/23 09:27:41;;;;;;;6.80;1.60;;;16.10;99.90;;;;;;5077074;28;20274;-76
2023/08/23 09:30:16;;;;;;;9.32;1.80;;;16.10;99.90;;;;;;5075765;28;20692;-76
2023/08/23 09:32:47;;;;;;;5.40;1.30;;;16.10;99.90;;;;;;5077183;28;20192;-76
2023/08/23 09:35:19;;;;;;;5.78;1.40;;;16.10;99.90;;;;;;5088134;28;20232;-76
2023/08/23 09:37:52;;;;;;;5.13;1.25;;;16.10;99.90;;;;;;5077442;28;20193;-75
2023/08/23 09:40:24;;;;;;;6.82;1.90;;;16.10;99.90;;;;;;5077675;28;20192;-75
2023/08/23 09:42:55;;;;;;;5.97;1.50;;;16.10;99.90;;;;;;5082693;28;20188;-75
2023/08/23 09:45:28;;;;;;;10.30;1.50;;;16.10;99.90;;;;;;5082917;28;20195;-75
2023/08/23 09:48:02;;;;;;;4.97;1.10;;;16.10;99.90;;;;;;5090142;28;20196;-75
2023/08/23 09:50:33;;;;;;;9.57;1.48;;;16.10;99.90;;;;;;5083430;28;20679;-75
2023/08/23 09:53:06;;;;;;;7.20;1.42;;;16.10;99.90;;;;;;5086466;28;20600;-75
2023/08/23 09:55:37;;;;;;;5.20;1.30;;;16.10;99.90;;;;;;5082782;28;20188;-75
2023/08/23 09:58:08;;;;;;;6.70;1.60;;;16.10;99.90;;;;;;5079342;28;20244;-75
2023/08/23 10:00:42;;;;;;;6.70;1.60;;;16.00;99.90;;;;;;5073994;28;20201;-75
2023/08/23 10:03:13;;;;;;;7.32;1.70;;;16.00;99.90;;;;;;5073949;28;20538;-75
2023/08/23 10:05:46;;;;;;;4.63;1.15;;;16.00;99.90;;;;;;5073448;28;20200;-75
2023/08/23 10:08:17;;;;;;;9.23;1.58;;;16.00;99.90;;;;;;5073526;28;20197;-75
2023/08/23 10:10:52;;;;;;;5.82;1.60;;;16.00;99.90;;;;;;5075753;28;20236;-75
2023/08/23 10:13:24;;;;;;;5.80;1.48;;;16.00;99.90;;;;;;5077178;28;20191;-75
2023/08/23 10:15:59;;;;;;;5.40;1.50;;;16.00;99.90;;;;;;5073104;28;20205;-77
2023/08/23 10:18:33;;;;;;;7.45;1.60;;;16.00;99.90;;;;;;5074361;28;20313;-76
2023/08/23 10:21:05;;;;;;;8.68;1.42;;;16.00;99.90;;;;;;5085993;28;20250;-75
2023/08/23 10:23:38;;;;;;;5.47;1.73;;;16.00;99.90;;;;;;5073548;28;20193;-75
2023/08/23 10:26:18;;;;;;;4.63;1.60;;;16.00;99.90;;;;;;5088210;28;20188;-75
2023/08/23 10:28:53;;;;;;;9.15;1.73;;;16.00;99.90;;;;;;5085893;28;20220;-76
2023/08/23 10:31:29;;;;;;;5.97;1.75;;;15.90;99.90;;;;;;5078717;28;20303;-75
2023/08/23 10:34:01;;;;;;;5.45;1.30;;;16.00;99.90;;;;;;5088549;28;20192;-76
2023/08/23 10:36:33;;;;;;;6.45;1.50;;;15.90;99.90;;;;;;5085335;28;20200;-75
2023/08/23 10:39:05;;;;;;;4.82;1.27;;;15.90;99.90;;;;;;5085497;28;20233;-75
2023/08/23 10:41:36;;;;;;;8.27;1.60;;;15.90;99.90;;;;;;5087779;28;20292;-75
2023/08/23 10:44:17;;;;;;;7.50;1.70;;;15.80;99.90;;;;;;5077655;28;20279;-75
2023/08/23 10:46:52;;;;;;;6.50;1.40;;;15.80;99.90;;;;;;5085346;28;20200;-75
2023/08/23 10:49:23;;;;;;;4.35;1.30;;;15.70;99.90;;;;;;5082857;28;20199;-76
2023/08/23 10:51:55;;;;;;;4.75;1.20;;;15.70;99.90;;;;;;5076866;28;20207;-75
2023/08/23 10:54:27;;;;;;;4.28;1.10;;;15.70;99.90;;;;;;5087461;28;20204;-76
2023/08/23 10:56:57;;;;;;;6.35;1.10;;;15.70;99.90;;;;;;5078948;28;20208;-76
2023/08/23 10:59:28;;;;;;;4.07;1.15;;;15.60;99.90;;;;;;5081392;28;20192;-75
2023/08/23 11:02:01;;;;;;;5.00;1.52;;;15.60;99.90;;;;;;5076349;28;20560;-75
2023/08/23 11:04:33;;;;;;;4.18;1.05;;;15.50;99.90;;;;;;5079768;28;20283;-75
2023/08/23 11:07:04;;;;;;;3.88;1.08;;;15.50;99.90;;;;;;5077117;28;20196;-75
2023/08/23 11:09:35;;;;;;;4.50;1.23;;;15.50;99.90;;;;;;5076015;28;20197;-75
2023/08/23 11:12:06;;;;;;;7.43;1.30;;;15.40;99.90;;;;;;5071677;28;20233;-75
2023/08/23 11:14:37;;;;;;;3.08;1.20;;;15.40;99.90;;;;;;5073542;28;20206;-75
2023/08/23 11:17:10;;;;;;;3.95;1.00;;;15.40;99.90;;;;;;5076797;28;20279;-75
2023/08/23 11:19:41;;;;;;;5.68;1.20;;;15.30;99.90;;;;;;5082412;28;20674;-75
2023/08/23 11:22:12;;;;;;;4.40;0.90;;;15.30;99.90;;;;;;5073722;28;20212;-75
2023/08/23 11:24:42;;;;;;;4.07;1.20;;;15.30;99.90;;;;;;5071220;28;20208;-75
2023/08/23 11:27:17;;;;;;;5.38;1.08;;;15.20;99.90;;;;;;5082800;28;20228;-74
2023/08/23 11:29:48;;;;;;;4.38;1.00;;;15.20;99.90;;;;;;5078846;28;20192;-75
2023/08/23 11:32:21;;;;;;;2.40;1.10;;;15.20;99.90;;;;;;5075134;28;20226;-75
2023/08/23 11:34:52;;;;;;;3.95;0.98;;;15.20;99.90;;;;;;5088230;28;20193;-75
2023/08/23 11:37:24;;;;;;;8.18;1.27;;;15.20;99.90;;;;;;5072784;28;20189;-76
2023/08/23 11:40:07;;;;;;;3.25;1.23;;;15.10;99.90;;;;;;5077586;28;20196;-75
2023/08/23 11:42:38;;;;;;;3.10;1.10;;;15.10;99.90;;;;;;5092103;28;20184;-75
2023/08/23 11:45:10;;;;;;;5.05;1.13;;;15.10;99.90;;;;;;5079910;28;20201;-75
2023/08/23 11:47:43;;;;;;;4.20;1.27;;;15.10;99.90;;;;;;5081817;28;20197;-74
2023/08/23 11:50:14;;;;;;;3.88;1.20;;;15.10;99.90;;;;;;5077376;28;20224;-75
2023/08/23 11:52:45;;;;;;;5.88;1.15;;;15.10;99.90;;;;;;5076967;28;20193;-76
2023/08/23 11:55:22;;;;;;;3.47;1.42;;;15.10;99.90;;;;;;5087303;28;20189;-75
2023/08/23 11:57:56;;;;;;;6.35;1.27;;;15.10;99.90;;;;;;5080430;28;20196;-77
2023/08/23 12:00:27;;;;;;;3.90;1.25;;;15.10;99.90;;;;;;5081748;28;20192;-76
2023/08/23 12:03:01;;;;;;;3.72;1.55;;;15.10;99.90;;;;;;5091978;28;20567;-76
2023/08/23 12:05:32;;;;;;;5.20;1.40;;;15.00;99.90;;;;;;5085202;28;20295;-77
2023/08/23 12:08:03;;;;;;;5.55;1.52;;;15.00;99.90;;;;;;5078708;28;20209;-77
2023/08/23 12:10:34;;;;;;;5.65;1.55;;;15.00;99.90;;;;;;5087397;28;20703;-76
2023/08/23 12:13:05;;;;;;;7.10;1.58;;;15.00;99.90;;;;;;5085470;28;20200;-77
2023/08/23 12:15:35;;;;;;;6.55;1.60;;;14.90;99.90;;;;;;5091993;28;20652;-76
2023/08/23 12:18:08;;;;;;;4.75;1.50;;;14.90;99.90;;;;;;5094257;28;20196;-76
2023/08/23 12:20:39;;;;;;;6.03;1.73;;;14.90;99.90;;;;;;5079932;28;20247;-75
2023/08/23 12:23:10;;;;;;;6.90;2.00;;;14.90;99.90;;;;;;5079015;28;20204;-75
2023/08/23 12:25:41;;;;;;;6.18;2.10;;;14.80;99.90;;;;;;5075226;28;20231;-75
2023/08/23 12:28:11;;;;;;;6.22;1.98;;;14.80;99.90;;;;;;5075372;28;20710;-77
2023/08/23 12:30:42;;;;;;;7.07;2.20;;;14.80;99.90;;;;;;5088942;28;20227;-76
2023/08/23 12:33:15;;;;;;;6.28;2.30;;;14.80;99.90;;;;;;5082272;28;20283;-76
2023/08/23 12:35:46;;;;;;;6.63;2.58;;;14.80;99.90;;;;;;5076065;28;20192;-75
2023/08/23 12:38:17;;;;;;;6.97;2.45;;;14.80;99.90;;;;;;5089254;28;20199;-76
2023/08/23 12:40:47;;;;;;;9.55;2.33;;;14.80;99.90;;;;;;5093802;28;20666;-77
2023/08/23 12:43:18;;;;;;;5.95;2.38;;;14.70;99.90;;;;;;5084177;28;20185;-77
2023/08/23 12:45:49;;;;;;;4.43;2.00;;;14.70;99.90;;;;;;5080577;28;20284;-76
2023/08/23 12:48:21;;;;;;;5.68;2.30;;;14.70;99.90;;;;;;5076239;28;20192;-76
2023/08/23 12:50:52;;;;;;;7.38;2.40;;;14.70;99.90;;;;;;5074355;28;20847;-75
2023/08/23 12:53:23;;;;;;;6.88;2.30;;;14.60;99.90;;;;;;5074849;28;20199;-78
2023/08/23 12:55:54;;;;;;;6.50;2.50;;;14.60;99.90;;;;;;5088336;28;20238;-75
2023/08/23 12:58:24;;;;;;;6.80;2.45;;;14.50;99.90;;;;;;5079604;28;20192;-77
2023/08/23 13:00:55;;;;;;;7.35;2.67;;;14.50;99.90;;;;;;5075910;28;20224;-76
2023/08/23 13:03:28;;;;;;;9.32;3.17;;;14.50;99.90;;;;;;5075445;28;20207;-76
2023/08/23 13:05:58;;;;;;;7.85;2.70;;;14.50;99.90;;;;;;5084933;28;20192;-75
2023/08/23 13:08:29;;;;;;;8.85;2.70;;;14.40;99.90;;;;;;5080366;28;20584;-77